Time;durP1;ratioP1;P1;durP2;ratioP2;P2;SDS_P1;SDS_P2;PMS_P1;PMS_P2;Temp;Humidity;BMP_temperature;BMP_pressure;BME280_temperature;BME280_humidity;BME280_pressure;Samples;Min_cycle;Max_cycle;Signal;HPM_P1;HPM_P2
2022/03/10 00:00:38;;;;;;;19.92;10.80;;;;;;;;;;5053279;28;20161;-63
2022/03/10 00:03:06;;;;;;;18.30;10.45;;;;;;;;;;5055734;28;20082;-63
2022/03/10 00:05:34;;;;;;;20.85;9.60;;;;;;;;;;5055217;28;20045;-62
2022/03/10 00:08:00;;;;;;;20.40;10.43;;;;;;;;;;5055761;28;20080;-62
2022/03/10 00:10:27;;;;;;;20.40;10.82;;;;;;;;;;5054604;28;20032;-62
2022/03/10 00:12:53;;;;;;;19.95;10.73;;;;;;;;;;5055659;28;20041;-62
2022/03/10 00:15:22;;;;;;;19.17;10.30;;;;;;;;;;5055001;28;20040;-62
2022/03/10 00:17:51;;;;;;;18.33;9.95;;;;;;;;;;5055425;28;20088;-63
2022/03/10 00:20:23;;;;;;;20.60;10.93;;;;;;;;;;5052144;28;20060;-63
2022/03/10 00:22:53;;;;;;;19.52;11.70;;;;;;;;;;5038815;28;20407;-62
2022/03/10 00:25:19;;;;;;;17.00;9.93;;;;;;;;;;5053573;28;20569;-62
2022/03/10 00:27:47;;;;;;;19.95;10.48;;;;;;;;;;5055787;28;20133;-62
2022/03/10 00:30:14;;;;;;;19.00;10.82;;;;;;;;;;5036555;28;20128;-62
2022/03/10 00:32:44;;;;;;;17.98;10.77;;;;;;;;;;5054613;28;20144;-62
2022/03/10 00:35:10;;;;;;;20.00;10.38;;;;;;;;;;5055829;28;20045;-62
2022/03/10 00:37:36;;;;;;;20.40;11.20;;;;;;;;;;5054877;28;20044;-62
2022/03/10 00:40:03;;;;;;;19.65;10.85;;;;;;;;;;5035404;28;20060;-63
2022/03/10 00:42:34;;;;;;;19.20;9.95;;;;;;;;;;5038100;28;20131;-63
2022/03/10 00:45:00;;;;;;;22.35;10.82;;;;;;;;;;5038678;28;20040;-62
2022/03/10 00:47:26;;;;;;;19.20;10.02;;;;;;;;;;5054421;28;20083;-63
2022/03/10 00:49:53;;;;;;;19.00;8.90;;;;;;;;;;5054568;28;20037;-63
2022/03/10 00:52:19;;;;;;;19.35;10.00;;;;;;;;;;5054261;28;20048;-63
2022/03/10 00:54:45;;;;;;;25.13;10.32;;;;;;;;;;5054814;28;20037;-63
2022/03/10 00:57:11;;;;;;;19.63;10.38;;;;;;;;;;5054739;28;20121;-63
2022/03/10 00:59:37;;;;;;;21.70;9.57;;;;;;;;;;5052383;28;20040;-63
2022/03/10 01:02:03;;;;;;;20.60;10.02;;;;;;;;;;5054205;28;20214;-62
2022/03/10 01:04:29;;;;;;;19.67;10.52;;;;;;;;;;5052493;28;20047;-63
2022/03/10 01:06:55;;;;;;;18.05;9.90;;;;;;;;;;5054070;28;20123;-63
2022/03/10 01:09:21;;;;;;;20.95;10.82;;;;;;;;;;5054228;28;20066;-63
2022/03/10 01:11:47;;;;;;;16.92;9.80;;;;;;;;;;5036927;28;20041;-63
2022/03/10 01:14:13;;;;;;;16.52;8.65;;;;;;;;;;5037896;28;20135;-62
2022/03/10 01:16:39;;;;;;;18.40;9.30;;;;;;;;;;5037055;28;20045;-63
2022/03/10 01:19:05;;;;;;;21.58;10.27;;;;;;;;;;5035192;28;20036;-63
2022/03/10 01:21:31;;;;;;;20.67;10.18;;;;;;;;;;5052714;28;20539;-62
2022/03/10 01:23:59;;;;;;;18.77;9.98;;;;;;;;;;5053598;28;20040;-63
2022/03/10 01:26:27;;;;;;;23.92;10.00;;;;;;;;;;5049803;28;20080;-63
2022/03/10 01:28:53;;;;;;;17.98;9.70;;;;;;;;;;5053302;28;20094;-63
2022/03/10 01:31:22;;;;;;;17.35;9.25;;;;;;;;;;5053365;28;20045;-63
2022/03/10 01:33:48;;;;;;;19.65;10.82;;;;;;;;;;5050658;28;20051;-63
2022/03/10 01:36:14;;;;;;;22.90;11.35;;;;;;;;;;5054712;28;20037;-63
2022/03/10 01:38:42;;;;;;;21.45;10.52;;;;;;;;;;5053663;28;20466;-63
2022/03/10 01:41:08;;;;;;;20.65;9.98;;;;;;;;;;5053095;28;20068;-63
2022/03/10 01:43:35;;;;;;;17.42;9.40;;;;;;;;;;5053212;28;20041;-63
2022/03/10 01:46:02;;;;;;;18.92;10.45;;;;;;;;;;5053348;28;20048;-63
2022/03/10 01:48:28;;;;;;;19.02;9.43;;;;;;;;;;5052285;28;20041;-63
2022/03/10 01:50:54;;;;;;;17.00;9.52;;;;;;;;;;5053691;28;20037;-63
2022/03/10 01:53:21;;;;;;;18.58;9.90;;;;;;;;;;5055168;28;20043;-63
2022/03/10 01:55:47;;;;;;;20.73;9.93;;;;;;;;;;5036124;28;20041;-63
2022/03/10 01:58:13;;;;;;;16.83;9.50;;;;;;;;;;5052413;28;20553;-66
2022/03/10 02:00:42;;;;;;;18.67;9.63;;;;;;;;;;5035014;28;20123;-64
2022/03/10 02:03:08;;;;;;;18.83;10.18;;;;;;;;;;5018423;28;20124;-63
2022/03/10 02:05:34;;;;;;;21.67;11.80;;;;;;;;;;5033275;28;20108;-63
2022/03/10 02:10:44;;;;;;;21.65;10.18;;;;;;;;;;5049458;28;20421;-63
2022/03/10 02:13:10;;;;;;;18.67;9.52;;;;;;;;;;5052752;28;20044;-63
2022/03/10 02:18:23;;;;;;;23.00;10.20;;;;;;;;;;5054033;28;20044;-63
2022/03/10 02:20:52;;;;;;;19.83;9.88;;;;;;;;;;5052420;28;20045;-63
2022/03/10 02:23:18;;;;;;;16.45;9.25;;;;;;;;;;5053399;28;20041;-63
2022/03/10 02:25:47;;;;;;;21.02;9.65;;;;;;;;;;5035964;28;20363;-63
2022/03/10 02:28:14;;;;;;;18.15;10.13;;;;;;;;;;5035784;28;20482;-63
2022/03/10 02:30:40;;;;;;;19.45;9.80;;;;;;;;;;5053065;28;20044;-63
2022/03/10 02:33:06;;;;;;;21.30;10.35;;;;;;;;;;5052680;28;20127;-63
2022/03/10 02:35:35;;;;;;;16.50;9.57;;;;;;;;;;5036104;28;20423;-62
2022/03/10 02:38:01;;;;;;;19.90;11.05;;;;;;;;;;5035775;28;20041;-63
2022/03/10 02:40:28;;;;;;;18.73;10.23;;;;;;;;;;5035769;28;20045;-63
2022/03/10 02:42:54;;;;;;;18.45;10.15;;;;;;;;;;5051951;28;20037;-63
2022/03/10 02:45:23;;;;;;;20.90;9.95;;;;;;;;;;5036072;28;20091;-63
2022/03/10 02:47:52;;;;;;;19.63;10.15;;;;;;;;;;5035970;28;20114;-63
2022/03/10 02:50:18;;;;;;;21.40;11.02;;;;;;;;;;5052512;28;20056;-63
2022/03/10 02:52:45;;;;;;;18.17;10.65;;;;;;;;;;5054229;28;20128;-63
2022/03/10 02:55:11;;;;;;;20.83;10.02;;;;;;;;;;5053385;28;20407;-63
2022/03/10 02:57:40;;;;;;;20.88;10.45;;;;;;;;;;5053398;28;20044;-63
2022/03/10 03:00:08;;;;;;;23.08;10.93;;;;;;;;;;5036017;28;20080;-63
2022/03/10 03:02:34;;;;;;;20.52;10.80;;;;;;;;;;5036097;28;20048;-63
2022/03/10 03:05:01;;;;;;;23.75;10.77;;;;;;;;;;5052069;28;20048;-63
2022/03/10 03:07:27;;;;;;;19.95;10.80;;;;;;;;;;5035592;28;20132;-63
2022/03/10 03:09:53;;;;;;;18.50;10.20;;;;;;;;;;5052074;28;20076;-64
2022/03/10 03:12:19;;;;;;;23.33;11.57;;;;;;;;;;5053820;28;20033;-64
2022/03/10 03:14:45;;;;;;;20.83;10.10;;;;;;;;;;5051706;28;20393;-64
2022/03/10 03:17:13;;;;;;;18.25;10.60;;;;;;;;;;5052917;28;20480;-63
2022/03/10 03:19:39;;;;;;;21.15;11.18;;;;;;;;;;5053108;28;20130;-64
2022/03/10 03:22:05;;;;;;;21.38;11.27;;;;;;;;;;5052518;28;20076;-64
2022/03/10 03:24:32;;;;;;;20.67;10.52;;;;;;;;;;5051710;28;20095;-64
2022/03/10 03:26:58;;;;;;;22.02;11.32;;;;;;;;;;5053891;28;20041;-63
2022/03/10 03:29:25;;;;;;;22.17;11.10;;;;;;;;;;5030624;28;20060;-63
2022/03/10 03:31:51;;;;;;;22.70;10.30;;;;;;;;;;5033258;28;20041;-63
2022/03/10 03:34:17;;;;;;;18.88;9.90;;;;;;;;;;5033128;28;20197;-63
2022/03/10 03:36:44;;;;;;;19.13;10.73;;;;;;;;;;5032205;28;20513;-63
2022/03/10 03:39:11;;;;;;;21.35;10.80;;;;;;;;;;5031897;28;20041;-63
2022/03/10 03:41:37;;;;;;;18.42;10.52;;;;;;;;;;5048991;28;20060;-64
2022/03/10 03:44:03;;;;;;;21.38;11.63;;;;;;;;;;5031889;28;20049;-63
2022/03/10 03:46:32;;;;;;;22.75;10.73;;;;;;;;;;5032712;28;20100;-63
2022/03/10 03:48:58;;;;;;;20.83;11.82;;;;;;;;;;5015367;28;20041;-63
2022/03/10 03:51:24;;;;;;;21.60;10.98;;;;;;;;;;5016420;28;20136;-64
2022/03/10 03:53:50;;;;;;;21.30;10.65;;;;;;;;;;5015416;28;20053;-64
2022/03/10 03:56:18;;;;;;;19.63;10.65;;;;;;;;;;5035973;28;20048;-64
2022/03/10 03:58:44;;;;;;;20.67;10.88;;;;;;;;;;5035259;28;20492;-63
2022/03/10 04:01:10;;;;;;;21.55;10.50;;;;;;;;;;5036079;28;20046;-63
2022/03/10 04:03:36;;;;;;;21.75;10.77;;;;;;;;;;5035588;28;20045;-64
2022/03/10 04:06:02;;;;;;;18.42;10.32;;;;;;;;;;5036059;28;20049;-63
2022/03/10 04:08:31;;;;;;;21.05;12.13;;;;;;;;;;5018461;28;20051;-63
2022/03/10 04:10:57;;;;;;;20.50;10.48;;;;;;;;;;5035217;28;20045;-64
2022/03/10 04:13:25;;;;;;;22.67;12.20;;;;;;;;;;5036091;28;20085;-64
2022/03/10 04:15:54;;;;;;;24.17;11.25;;;;;;;;;;5034496;28;20051;-63
2022/03/10 04:18:20;;;;;;;23.00;11.70;;;;;;;;;;5034740;28;20045;-64
2022/03/10 04:20:47;;;;;;;21.25;10.73;;;;;;;;;;5034362;28;20124;-64
2022/03/10 04:23:14;;;;;;;25.67;11.43;;;;;;;;;;5035936;28;20049;-64
2022/03/10 04:25:40;;;;;;;23.65;11.40;;;;;;;;;;5051116;28;20069;-63
2022/03/10 04:28:06;;;;;;;24.58;11.88;;;;;;;;;;5018320;28;20049;-64
2022/03/10 04:30:37;;;;;;;25.20;11.48;;;;;;;;;;5034601;28;20041;-64
2022/03/10 04:33:03;;;;;;;21.10;11.45;;;;;;;;;;5034798;28;20085;-63
2022/03/10 04:35:29;;;;;;;21.35;10.98;;;;;;;;;;5035442;28;20049;-64
2022/03/10 04:37:56;;;;;;;22.40;11.38;;;;;;;;;;5034460;28;20041;-63
2022/03/10 04:40:23;;;;;;;21.67;11.75;;;;;;;;;;5035297;28;20045;-64
2022/03/10 04:42:50;;;;;;;22.55;11.50;;;;;;;;;;5034583;28;20081;-64
2022/03/10 04:45:16;;;;;;;20.80;10.38;;;;;;;;;;5034628;28;20167;-64
2022/03/10 04:47:42;;;;;;;21.52;11.32;;;;;;;;;;5035894;28;20034;-64
2022/03/10 04:50:11;;;;;;;21.30;11.35;;;;;;;;;;5034596;28;20145;-63
2022/03/10 04:52:38;;;;;;;21.13;10.48;;;;;;;;;;5034302;28;20091;-64
2022/03/10 04:55:07;;;;;;;23.17;11.32;;;;;;;;;;5017885;28;20054;-63
2022/03/10 04:57:34;;;;;;;23.05;12.65;;;;;;;;;;5034422;28;20115;-63
2022/03/10 05:00:08;;;;;;;25.95;11.65;;;;;;;;;;5035292;28;20080;-64
2022/03/10 05:02:34;;;;;;;23.05;11.00;;;;;;;;;;5035070;28;20049;-63
2022/03/10 05:05:00;;;;;;;21.30;11.27;;;;;;;;;;5034534;28;20042;-63
2022/03/10 05:07:26;;;;;;;22.25;11.93;;;;;;;;;;5017798;28;20045;-64
2022/03/10 05:09:52;;;;;;;24.83;11.00;;;;;;;;;;5035262;28;20042;-64
2022/03/10 05:12:20;;;;;;;24.33;11.50;;;;;;;;;;5035043;28;20343;-64
2022/03/10 05:14:46;;;;;;;21.15;10.95;;;;;;;;;;5034966;28;20052;-64
2022/03/10 05:17:13;;;;;;;21.50;11.48;;;;;;;;;;5017664;28;20049;-64
2022/03/10 05:19:39;;;;;;;18.95;10.45;;;;;;;;;;5033654;28;20041;-64
2022/03/10 05:22:05;;;;;;;22.65;11.35;;;;;;;;;;5034704;28;20462;-64
2022/03/10 05:24:31;;;;;;;19.67;11.70;;;;;;;;;;5033667;28;20111;-64
2022/03/10 05:26:58;;;;;;;23.15;10.75;;;;;;;;;;5035482;28;20132;-64
2022/03/10 05:29:26;;;;;;;24.15;11.45;;;;;;;;;;5018243;28;20481;-64
2022/03/10 05:31:52;;;;;;;22.00;10.88;;;;;;;;;;5033909;28;20095;-63
2022/03/10 05:34:20;;;;;;;25.83;11.95;;;;;;;;;;5035117;28;20115;-64
2022/03/10 05:36:47;;;;;;;18.67;11.18;;;;;;;;;;5034448;28;20477;-63
2022/03/10 05:39:13;;;;;;;21.80;11.20;;;;;;;;;;5033637;28;20116;-63
2022/03/10 05:41:39;;;;;;;24.45;11.82;;;;;;;;;;5033165;28;20107;-63
2022/03/10 05:44:05;;;;;;;24.15;10.95;;;;;;;;;;5033586;28;20045;-63
2022/03/10 05:46:31;;;;;;;22.10;11.38;;;;;;;;;;5033165;28;20450;-64
2022/03/10 05:48:57;;;;;;;24.98;11.77;;;;;;;;;;5033411;28;20481;-63
2022/03/10 05:51:23;;;;;;;24.02;12.02;;;;;;;;;;5016930;28;20053;-64
2022/03/10 05:53:50;;;;;;;21.55;11.43;;;;;;;;;;5034418;28;20041;-63
2022/03/10 05:56:19;;;;;;;23.85;12.73;;;;;;;;;;5036001;28;20120;-64
2022/03/10 05:58:45;;;;;;;25.83;12.80;;;;;;;;;;5053527;28;20136;-63
2022/03/10 06:01:13;;;;;;;22.83;11.50;;;;;;;;;;5053777;28;20131;-63
2022/03/10 06:03:40;;;;;;;22.00;11.02;;;;;;;;;;5054203;28;20037;-64
2022/03/10 06:06:06;;;;;;;23.55;12.45;;;;;;;;;;5053679;28;20462;-63
2022/03/10 06:08:32;;;;;;;18.55;10.70;;;;;;;;;;5054078;28;20465;-63
2022/03/10 06:10:58;;;;;;;23.55;12.32;;;;;;;;;;5052889;28;20183;-64
2022/03/10 06:13:24;;;;;;;22.50;11.43;;;;;;;;;;5053081;28;20385;-63
2022/03/10 06:15:50;;;;;;;22.33;11.38;;;;;;;;;;5053923;28;20461;-63
2022/03/10 06:18:16;;;;;;;22.85;11.07;;;;;;;;;;5052520;28;20041;-63
2022/03/10 06:20:42;;;;;;;24.70;11.48;;;;;;;;;;5052874;28;20115;-63
2022/03/10 06:23:08;;;;;;;21.08;10.82;;;;;;;;;;5037154;28;20091;-63
2022/03/10 06:25:35;;;;;;;21.90;12.05;;;;;;;;;;5053491;28;20052;-64
2022/03/10 06:28:01;;;;;;;22.73;11.00;;;;;;;;;;5023226;28;20075;-64
2022/03/10 06:30:27;;;;;;;23.30;11.02;;;;;;;;;;5051544;28;20047;-64
2022/03/10 06:32:53;;;;;;;23.10;11.52;;;;;;;;;;5052539;28;20044;-63
2022/03/10 06:35:19;;;;;;;24.20;10.75;;;;;;;;;;5052761;28;20037;-64
2022/03/10 06:37:46;;;;;;;22.77;11.98;;;;;;;;;;5032536;28;20045;-64
2022/03/10 06:40:12;;;;;;;20.38;11.73;;;;;;;;;;5016153;28;20485;-64
2022/03/10 06:42:38;;;;;;;22.02;11.10;;;;;;;;;;5016394;28;20054;-63
2022/03/10 06:45:04;;;;;;;24.13;11.50;;;;;;;;;;5033746;28;20043;-63
2022/03/10 06:47:33;;;;;;;21.98;11.63;;;;;;;;;;5033686;28;20048;-63
2022/03/10 06:49:59;;;;;;;26.52;11.43;;;;;;;;;;5034854;28;20037;-63
2022/03/10 06:52:28;;;;;;;20.55;11.30;;;;;;;;;;5049608;28;20093;-63
2022/03/10 06:54:56;;;;;;;22.20;11.10;;;;;;;;;;5052704;28;20037;-62
2022/03/10 06:57:22;;;;;;;20.40;10.30;;;;;;;;;;5048650;28;20049;-64
2022/03/10 06:59:48;;;;;;;24.33;10.82;;;;;;;;;;5047552;28;20041;-63
2022/03/10 07:02:16;;;;;;;24.98;12.32;;;;;;;;;;5043858;28;20041;-62
2022/03/10 07:04:42;;;;;;;22.15;11.75;;;;;;;;;;5023562;28;20045;-62
2022/03/10 07:07:08;;;;;;;22.23;12.07;;;;;;;;;;5040860;28;20033;-62
2022/03/10 07:09:34;;;;;;;22.17;11.13;;;;;;;;;;5049830;28;20380;-62
2022/03/10 07:12:00;;;;;;;24.48;10.85;;;;;;;;;;5051599;28;20029;-62
2022/03/10 07:14:26;;;;;;;21.67;10.85;;;;;;;;;;5051546;28;20127;-62
2022/03/10 07:16:53;;;;;;;20.50;10.73;;;;;;;;;;5052923;28;20457;-63
2022/03/10 07:19:19;;;;;;;21.65;10.95;;;;;;;;;;5052210;28;20041;-62
2022/03/10 07:21:45;;;;;;;22.27;11.48;;;;;;;;;;5035676;28;20049;-62
2022/03/10 07:24:12;;;;;;;19.95;11.73;;;;;;;;;;5051787;28;20355;-63
2022/03/10 07:26:41;;;;;;;20.58;10.95;;;;;;;;;;5052297;28;20489;-62
2022/03/10 07:29:10;;;;;;;18.95;9.80;;;;;;;;;;5053556;28;20469;-62
2022/03/10 07:31:38;;;;;;;20.52;10.85;;;;;;;;;;5055804;28;20049;-62
2022/03/10 07:34:04;;;;;;;21.17;10.70;;;;;;;;;;5039337;28;20048;-62
2022/03/10 07:36:32;;;;;;;23.73;11.70;;;;;;;;;;5055725;28;20044;-62
2022/03/10 07:38:58;;;;;;;22.90;11.57;;;;;;;;;;5038960;28;20478;-62
2022/03/10 07:41:25;;;;;;;22.15;11.13;;;;;;;;;;5055142;28;20063;-62
2022/03/10 07:43:51;;;;;;;21.52;11.85;;;;;;;;;;5055876;28;20049;-62
2022/03/10 07:46:22;;;;;;;24.63;11.90;;;;;;;;;;5054144;28;20036;-62
2022/03/10 07:48:50;;;;;;;22.73;11.32;;;;;;;;;;5055127;28;20052;-62
2022/03/10 07:51:17;;;;;;;22.33;11.70;;;;;;;;;;5037563;28;20123;-62
2022/03/10 07:53:43;;;;;;;18.17;10.85;;;;;;;;;;5055667;28;20129;-62
2022/03/10 07:56:09;;;;;;;21.33;11.45;;;;;;;;;;5038500;28;20033;-62
2022/03/10 07:58:35;;;;;;;19.52;11.48;;;;;;;;;;5054973;28;20041;-62
2022/03/10 08:01:02;;;;;;;21.27;10.88;;;;;;;;;;5037196;28;20076;-62
2022/03/10 08:03:28;;;;;;;20.83;10.63;;;;;;;;;;5038872;28;20048;-62
2022/03/10 08:05:54;;;;;;;19.83;10.70;;;;;;;;;;5055290;28;20044;-62
2022/03/10 08:08:23;;;;;;;24.88;12.88;;;;;;;;;;5054882;28;20045;-62
2022/03/10 08:10:49;;;;;;;22.10;11.05;;;;;;;;;;5039539;28;20037;-62
2022/03/10 08:13:19;;;;;;;20.60;11.13;;;;;;;;;;5055361;28;20466;-62
2022/03/10 08:15:45;;;;;;;23.13;11.23;;;;;;;;;;5037525;28;20098;-62
2022/03/10 08:18:11;;;;;;;19.75;11.23;;;;;;;;;;5056712;28;20041;-62
2022/03/10 08:20:39;;;;;;;20.98;12.32;;;;;;;;;;5054875;28;20071;-62
2022/03/10 08:23:05;;;;;;;21.23;12.07;;;;;;;;;;5055234;28;20106;-62
2022/03/10 08:25:31;;;;;;;20.77;11.00;;;;;;;;;;5036020;28;20493;-64
2022/03/10 08:27:59;;;;;;;24.63;13.25;;;;;;;;;;5051564;28;20401;-63
2022/03/10 08:30:28;;;;;;;21.83;11.75;;;;;;;;;;5037612;28;20052;-63
2022/03/10 08:32:56;;;;;;;22.17;10.90;;;;;;;;;;5038262;28;20099;-63
2022/03/10 08:35:25;;;;;;;18.27;10.90;;;;;;;;;;5018201;28;20041;-63
2022/03/10 08:37:51;;;;;;;23.50;11.48;;;;;;;;;;5044912;28;20049;-63
2022/03/10 08:40:20;;;;;;;20.63;11.27;;;;;;;;;;5052362;28;20111;-63
2022/03/10 08:42:47;;;;;;;22.27;11.57;;;;;;;;;;5054733;28;20093;-63
2022/03/10 08:45:13;;;;;;;20.00;11.82;;;;;;;;;;5055298;28;20066;-63
2022/03/10 08:47:39;;;;;;;20.13;11.77;;;;;;;;;;5054455;28;20474;-63
2022/03/10 08:50:06;;;;;;;20.52;12.20;;;;;;;;;;5035541;28;20050;-63
2022/03/10 08:52:35;;;;;;;20.63;10.85;;;;;;;;;;5053451;28;20107;-64
2022/03/10 08:55:02;;;;;;;21.10;11.57;;;;;;;;;;5035193;28;20052;-63
2022/03/10 08:57:28;;;;;;;23.58;12.18;;;;;;;;;;5052239;28;20423;-63
2022/03/10 08:59:54;;;;;;;23.90;13.75;;;;;;;;;;5019623;28;20458;-64
2022/03/10 09:02:20;;;;;;;23.20;12.40;;;;;;;;;;5054270;28;20064;-64
2022/03/10 09:04:46;;;;;;;19.55;11.43;;;;;;;;;;5036427;28;20124;-64
2022/03/10 09:07:18;;;;;;;23.15;12.45;;;;;;;;;;5054104;28;20036;-62
2022/03/10 09:09:46;;;;;;;22.30;12.48;;;;;;;;;;5054853;28;20055;-63
2022/03/10 09:12:12;;;;;;;23.77;12.15;;;;;;;;;;5037861;28;20037;-62
2022/03/10 09:14:39;;;;;;;23.35;12.40;;;;;;;;;;5055196;28;20040;-63
2022/03/10 09:17:08;;;;;;;21.13;12.10;;;;;;;;;;5053518;28;20080;-62
2022/03/10 09:19:34;;;;;;;21.98;12.30;;;;;;;;;;5030695;28;20046;-63
2022/03/10 09:22:01;;;;;;;24.55;12.30;;;;;;;;;;5048929;28;20041;-62
2022/03/10 09:24:28;;;;;;;20.63;11.95;;;;;;;;;;5049507;28;20430;-63
2022/03/10 09:26:54;;;;;;;22.52;11.80;;;;;;;;;;5054349;28;20556;-62
2022/03/10 09:29:20;;;;;;;22.20;12.23;;;;;;;;;;5037198;28;20049;-62
2022/03/10 09:31:46;;;;;;;25.23;12.27;;;;;;;;;;5051502;28;20045;-63
2022/03/10 09:34:12;;;;;;;23.80;12.88;;;;;;;;;;5042190;28;20428;-62
2022/03/10 09:36:38;;;;;;;19.50;12.13;;;;;;;;;;5052705;28;20069;-62
2022/03/10 09:39:04;;;;;;;21.98;12.35;;;;;;;;;;5052145;28;20412;-63
2022/03/10 09:41:31;;;;;;;21.77;13.30;;;;;;;;;;5049557;28;20075;-62
2022/03/10 09:43:57;;;;;;;23.13;12.85;;;;;;;;;;5054360;28;20094;-62
2022/03/10 09:46:23;;;;;;;23.90;12.77;;;;;;;;;;5053574;28;20131;-62
2022/03/10 09:48:50;;;;;;;24.52;12.70;;;;;;;;;;5035689;28;20044;-63
2022/03/10 09:51:19;;;;;;;24.52;12.68;;;;;;;;;;5052364;28;20044;-62
2022/03/10 09:53:45;;;;;;;24.85;13.55;;;;;;;;;;5053831;28;20051;-62
2022/03/10 09:56:11;;;;;;;23.90;12.45;;;;;;;;;;5053851;28;20079;-63
2022/03/10 09:58:38;;;;;;;21.98;12.40;;;;;;;;;;5036785;28;20036;-64
2022/03/10 10:01:07;;;;;;;22.33;11.25;;;;;;;;;;5052614;28;20508;-66
2022/03/10 10:03:33;;;;;;;23.83;12.48;;;;;;;;;;5054123;28;20049;-63
2022/03/10 10:06:03;;;;;;;22.23;12.13;;;;;;;;;;5054448;28;20041;-62
2022/03/10 10:08:34;;;;;;;25.15;14.55;;;;;;;;;;5052910;28;20033;-65
2022/03/10 10:11:01;;;;;;;21.25;12.60;;;;;;;;;;5037352;28;20046;-66
2022/03/10 10:13:31;;;;;;;20.75;13.00;;;;;;;;;;5036580;28;20098;-67
2022/03/10 10:16:00;;;;;;;33.47;13.07;;;;;;;;;;5052292;28;20032;-66
2022/03/10 10:18:27;;;;;;;20.30;12.82;;;;;;;;;;5052958;28;20049;-63
2022/03/10 10:20:54;;;;;;;22.20;13.13;;;;;;;;;;5052249;28;20123;-65
2022/03/10 10:23:28;;;;;;;21.48;12.32;;;;;;;;;;5036097;28;20065;-65
2022/03/10 10:25:56;;;;;;;23.13;14.38;;;;;;;;;;5052694;28;20053;-67
2022/03/10 10:28:27;;;;;;;24.13;13.43;;;;;;;;;;5052791;28;20428;-67
2022/03/10 10:30:57;;;;;;;24.58;13.52;;;;;;;;;;5036253;28;20045;-63
2022/03/10 10:33:24;;;;;;;26.58;13.20;;;;;;;;;;5035805;28;20474;-64
2022/03/10 10:36:13;;;;;;;24.80;13.73;;;;;;;;;;5054273;28;20124;-64
2022/03/10 10:38:39;;;;;;;26.95;14.73;;;;;;;;;;5035773;28;20384;-64
2022/03/10 10:41:27;;;;;;;22.90;12.70;;;12.60;99.90;;;;;;5019523;28;20476;-64
2022/03/10 10:43:55;;;;;;;24.35;12.82;;;;;;;;;;5052449;28;20465;-65
2022/03/10 10:46:27;;;;;;;24.63;14.70;;;;;;;;;;5035987;28;20039;-65
2022/03/10 10:48:53;;;;;;;26.52;14.50;;;;;;;;;;5052910;28;20045;-65
2022/03/10 10:51:43;;;;;;;29.63;15.50;;;13.10;99.90;;;;;;5035871;28;20432;-64
2022/03/10 10:54:13;;;;;;;24.67;14.73;;;;;;;;;;5036497;28;20076;-65
2022/03/10 10:56:46;;;;;;;22.90;13.67;;;;;;;;;;5035711;28;20485;-64
2022/03/10 10:59:35;;;;;;;25.05;14.73;;;13.60;99.90;;;;;;5040847;28;20296;-64
2022/03/10 11:02:11;;;;;;;22.73;13.98;;;;;;;;;;5051979;28;20048;-65
2022/03/10 11:04:38;;;;;;;26.95;14.30;;;;;;;;;;5042319;28;20107;-65
2022/03/10 11:07:04;;;;;;;26.75;14.73;;;;;;;;;;5056167;28;20052;-65
2022/03/10 11:09:34;;;;;;;26.75;14.75;;;;;;;;;;5057457;28;20086;-65
2022/03/10 11:12:00;;;;;;;26.42;13.82;;;;;;;;;;5054651;28;20477;-64
2022/03/10 11:14:26;;;;;;;27.92;15.20;;;;;;;;;;5039811;28;20041;-64
2022/03/10 11:16:55;;;;;;;27.52;14.73;;;;;;;;;;5057857;28;20047;-64
2022/03/10 11:19:25;;;;;;;31.20;15.50;;;;;;;;;;5058093;28;20351;-64
2022/03/10 11:21:54;;;;;;;23.35;13.43;;;;;;;;;;5056024;28;20040;-63
2022/03/10 11:24:30;;;;;;;26.05;15.88;;;;;;;;;;5057042;28;20049;-64
2022/03/10 11:27:08;;;;;;;27.15;16.27;;;;;;;;;;5056527;28;20052;-64
2022/03/10 11:29:37;;;;;;;26.15;14.73;;;;;;;;;;5055917;28;20080;-64
2022/03/10 11:32:07;;;;;;;27.30;13.73;;;;;;;;;;5039531;28;20080;-64
2022/03/10 11:34:46;;;;;;;27.77;16.48;;;;;;;;;;5039191;28;20087;-64
2022/03/10 11:37:13;;;;;;;25.05;14.68;;;;;;;;;;5039110;28;20041;-64
2022/03/10 11:40:08;;;;;;;27.80;15.65;;;;;;;;;;5055733;28;20040;-63
2022/03/10 11:42:35;;;;;;;24.27;13.20;;;;;;;;;;5051383;28;20485;-63
2022/03/10 11:45:17;;;;;;;28.92;14.73;;;;;;;;;;5039231;28;20037;-64
2022/03/10 11:47:44;;;;;;;27.13;14.48;;;;;;;;;;5039783;28;20136;-63
2022/03/10 11:50:22;;;;;;;28.58;15.27;;;;;;;;;;5039050;28;20040;-64
2022/03/10 11:52:59;;;;;;;29.13;15.52;;;;;;;;;;5038817;28;20044;-63
2022/03/10 11:55:52;;;;;;;29.80;15.52;;;14.90;96.10;;;;;;5055308;28;20041;-56
2022/03/10 11:58:21;;;;;;;26.30;16.50;;;;;;;;;;5055870;28;20059;-61
2022/03/10 12:03:30;;;;;;;27.25;15.02;;;;;;;;;;5552260;22;20096;-56
2022/03/10 12:06:00;;;;;;;28.17;15.82;;;;;;;;;;5034110;28;20056;-56
2022/03/10 12:08:30;;;;;;;36.20;18.27;;;;;;;;;;5035076;28;20038;-56
2022/03/10 12:10:57;;;;;;;29.38;15.80;;;;;;;;;;5013503;28;20124;-56
2022/03/10 12:13:26;;;;;;;31.58;17.00;;;;;;;;;;5017388;28;20129;-56
2022/03/10 12:15:52;;;;;;;27.27;12.05;;;;;;;;;;5014859;28;20114;-56
2022/03/10 12:18:23;;;;;;;27.45;14.35;;;;;;;;;;5034491;28;20065;-57
2022/03/10 12:20:50;;;;;;;28.23;14.68;;;;;;;;;;5035103;28;20038;-57
2022/03/10 12:23:19;;;;;;;26.48;15.82;;;;;;;;;;5034389;28;20041;-57
2022/03/10 12:25:55;;;;;;;27.92;16.05;;;;;;;;;;5012891;28;20045;-57
2022/03/10 12:28:24;;;;;;;25.13;15.75;;;;;;;;;;5032463;28;20045;-57
2022/03/10 12:30:53;;;;;;;27.55;14.68;;;;;;;;;;5033245;28;20059;-58
2022/03/10 12:33:19;;;;;;;27.67;16.55;;;;;;;;;;5015063;28;20053;-56
2022/03/10 12:35:45;;;;;;;29.77;15.90;;;;;;;;;;5015461;28;20089;-57
2022/03/10 12:38:11;;;;;;;26.73;15.93;;;;;;;;;;5032003;28;20080;-57
2022/03/10 12:40:38;;;;;;;27.58;15.82;;;;;;;;;;5031541;28;20037;-58
2022/03/10 12:43:08;;;;;;;28.80;16.25;;;;;;;;;;5032524;28;20096;-57
2022/03/10 12:45:43;;;;;;;27.42;14.52;;;;;;;;;;5028405;28;20095;-60
2022/03/10 12:48:14;;;;;;;28.27;15.93;;;;;;;;;;5033044;28;20065;-57
2022/03/10 12:50:43;;;;;;;28.35;16.20;;;;;;;;;;5015492;28;20049;-59
2022/03/10 12:53:13;;;;;;;29.73;14.95;;;;;;;;;;5032258;28;20056;-58
2022/03/10 12:55:39;;;;;;;26.85;15.18;;;;;;;;;;5032219;28;20041;-60
2022/03/10 12:58:06;;;;;;;26.10;14.63;;;;;;;;;;5033084;28;20045;-57
2022/03/10 13:00:36;;;;;;;26.60;15.15;;;;;;;;;;4996021;28;20061;-57
2022/03/10 13:03:02;;;;;;;29.00;14.77;;;;;;;;;;5014562;28;20077;-58
2022/03/10 13:05:29;;;;;;;25.13;14.63;;;;;;;;;;5032352;28;20084;-62
2022/03/10 13:08:04;;;;;;;26.35;14.02;;;;;;;;;;4995158;28;20059;-59
2022/03/10 13:10:30;;;;;;;24.55;13.80;;;;;;;;;;5032486;28;20374;-58
2022/03/10 13:12:56;;;;;;;24.92;14.07;;;;;;;;;;5014941;28;20033;-58
2022/03/10 13:15:24;;;;;;;23.48;13.57;;;;;;;;;;5032017;28;20044;-58
2022/03/10 13:17:51;;;;;;;29.23;15.57;;;;;;;;;;5014493;28;20041;-57
2022/03/10 13:20:20;;;;;;;22.55;13.07;;;;;;;;;;4998340;28;20136;-57
2022/03/10 13:22:53;;;;;;;23.40;12.77;;;;;;;;;;5032223;28;20061;-59
2022/03/10 13:25:20;;;;;;;22.02;13.82;;;;;;;;;;5013949;28;20057;-58
2022/03/10 13:27:47;;;;;;;26.38;13.20;;;;;;;;;;5029853;28;20057;-57
2022/03/10 13:30:32;;;;;;;27.10;14.18;;;;;;;;;;5031933;28;20037;-58
2022/03/10 13:33:00;;;;;;;25.40;13.70;;;;;;;;;;4996463;28;20211;-60
2022/03/10 13:35:31;;;;;;;25.67;14.30;;;;;;;;;;5013964;28;20049;-62
2022/03/10 13:37:58;;;;;;;;;;;15.90;93.20;;;;;;4997666;28;20382;-59
2022/03/10 13:40:24;;;;;;;23.83;14.25;;;;;;;;;;5010107;28;20359;-58
2022/03/10 13:42:52;;;;;;;25.15;13.93;;;;;;;;;;5014416;28;20053;-60
2022/03/10 13:45:18;;;;;;;27.08;15.27;;;;;;;;;;5014314;28;20041;-58
2022/03/10 13:47:57;;;;;;;25.40;14.75;;;;;;;;;;5031163;28;20048;-58
2022/03/10 13:50:25;;;;;;;24.75;12.85;;;;;;;;;;5032665;28;20069;-58
2022/03/10 13:53:01;;;;;;;25.23;13.43;;;;;;;;;;4998787;28;20396;-57
2022/03/10 13:55:38;;;;;;;22.88;13.40;;;;;;;;;;5033033;28;20049;-57
2022/03/10 13:58:06;;;;;;;25.17;13.85;;;;;;;;;;5032286;28;20484;-59
2022/03/10 14:00:34;;;;;;;23.95;13.93;;;;;;;;;;4994434;28;20041;-59
2022/03/10 14:03:06;;;;;;;27.13;13.57;;;;;;;;;;4992484;28;20061;-59
2022/03/10 14:05:46;;;;;;;20.27;11.45;;;;;;;;;;4994756;28;20486;-58
2022/03/10 14:08:17;;;;;;;26.55;14.95;;;;;;;;;;4995732;28;20057;-59
2022/03/10 14:10:44;;;;;;;27.67;16.27;;;;;;;;;;4972509;28;20046;-59
2022/03/10 14:13:11;;;;;;;26.95;15.35;;;;;;;;;;5012117;28;20046;-60
2022/03/10 14:15:38;;;;;;;27.65;14.27;;;;;;;;;;4979890;28;20072;-60
2022/03/10 14:18:08;;;;;;;25.65;14.70;;;;;;;;;;5011412;28;20563;-61
2022/03/10 14:20:42;;;;;;;21.98;10.75;;;;;;;;;;4995293;28;20073;-62
2022/03/10 14:23:08;;;;;;;24.92;13.32;;;;;;;;;;5011477;28;20049;-60
2022/03/10 14:25:43;;;;;;;23.65;13.90;;;;;;;;;;5011249;28;20512;-59
2022/03/10 14:28:09;;;;;;;22.83;12.45;;;;;;;;;;4995679;28;20133;-59